Time;durP1;ratioP1;P1;durP2;ratioP2;P2;SDS_P1;SDS_P2;PMS_P1;PMS_P2;Temp;Humidity;BMP_temperature;BMP_pressure;BME280_temperature;BME280_humidity;BME280_pressure;Samples;Min_cycle;Max_cycle;Signal;HPM_P1;HPM_P2
2024/03/20 00:00:57;;;;;;;36.47;24.80;;;;;22.30;100753.00;;;;2035937;28;20219;-59
2024/03/20 00:01:57;;;;;;;39.60;24.13;;;;;22.30;100762.00;;;;2052750;28;20755;-58
2024/03/20 00:02:57;;;;;;;38.97;25.00;;;;;22.30;100749.00;;;;2045621;28;20960;-60
2024/03/20 00:03:58;;;;;;;36.90;23.97;;;;;22.30;100756.00;;;;2047046;28;20633;-59
2024/03/20 00:04:58;;;;;;;38.03;23.77;;;;;22.30;100756.00;;;;2044817;28;20644;-62
2024/03/20 00:05:59;;;;;;;35.80;23.50;;;;;22.30;100762.00;;;;2036782;28;20216;-58
2024/03/20 00:06:59;;;;;;;38.30;23.73;;;;;22.30;100763.00;;;;2045453;28;20908;-58
2024/03/20 00:07:59;;;;;;;33.97;22.20;;;;;22.30;100758.00;;;;2046266;28;20768;-58
2024/03/20 00:09:01;;;;;;;37.13;22.17;;;;;22.30;100757.00;;;;2044934;28;20212;-58
2024/03/20 00:10:01;;;;;;;33.72;22.92;;;;;22.30;100755.00;;;;2036722;28;20208;-58
2024/03/20 00:11:01;;;;;;;35.83;22.50;;;;;22.30;100758.00;;;;2047273;28;20287;-58
2024/03/20 00:12:02;;;;;;;37.53;23.30;;;;;22.30;100752.00;;;;2045210;28;20235;-58
2024/03/20 00:13:02;;;;;;;39.03;24.17;;;;;22.30;100744.00;;;;2045033;28;20636;-59
2024/03/20 00:14:05;;;;;;;38.20;22.73;;;;;22.30;100749.00;;;;2048831;28;20652;-58
2024/03/20 00:15:06;;;;;;;36.95;22.27;;;;;22.30;100744.00;;;;2036217;28;20259;-58
2024/03/20 00:16:06;;;;;;;31.03;20.20;;;;;22.30;100747.00;;;;2049270;28;20622;-58
2024/03/20 00:17:07;;;;;;;33.57;21.40;;;;;22.30;100746.00;;;;2045685;28;20492;-59
2024/03/20 00:18:08;;;;;;;37.45;24.05;;;;;22.30;100751.00;;;;2046057;28;20253;-58
2024/03/20 00:19:08;;;;;;;32.60;22.07;;;;;22.30;100747.00;;;;2045849;28;20273;-58
2024/03/20 00:20:10;;;;;;;33.93;20.43;;;;;22.30;100744.00;;;;2036186;28;20220;-59
2024/03/20 00:21:10;;;;;;;31.50;20.92;;;;;22.30;100744.00;;;;2040673;28;20621;-59
2024/03/20 00:22:11;;;;;;;28.20;19.17;;;;;21.30;100744.00;;;;2045257;28;20259;-59
2024/03/20 00:23:11;;;;;;;34.33;21.00;;;;;22.20;100750.00;;;;2046952;28;20211;-59
2024/03/20 00:24:12;;;;;;;30.10;20.23;;;;;22.30;100745.00;;;;2045358;28;20231;-59
2024/03/20 00:25:13;;;;;;;32.20;20.43;;;;;22.20;100747.00;;;;2037100;28;20905;-59
2024/03/20 00:26:13;;;;;;;36.22;19.95;;;;;22.20;100751.00;;;;2051419;28;20279;-58
2024/03/20 00:27:15;;;;;;;29.83;20.63;;;;;22.20;100750.00;;;;2045409;28;20212;-58
2024/03/20 00:28:15;;;;;;;30.85;19.00;;;;;22.20;100797.00;;;;2045819;28;20216;-58
2024/03/20 00:29:16;;;;;;;35.37;21.20;;;;;22.20;100745.00;;;;2045362;28;20691;-58
2024/03/20 00:30:16;;;;;;;32.80;19.80;;;;;22.20;100743.00;;;;2034171;28;20303;-58
2024/03/20 00:31:17;;;;;;;32.70;20.30;;;;;22.20;100744.00;;;;2044880;28;20220;-58
2024/03/20 00:32:17;;;;;;;28.10;19.67;;;;;22.20;100741.00;;;;2045789;28;20960;-59
2024/03/20 00:33:17;;;;;;;29.63;19.67;;;;;22.20;100746.00;;;;2050161;28;21102;-56
2024/03/20 00:34:18;;;;;;;30.70;19.40;;;;;22.20;100745.00;;;;2045703;28;20683;-59
2024/03/20 00:35:18;;;;;;;28.83;17.67;;;;;22.30;100747.00;;;;2035411;28;20229;-59
2024/03/20 00:36:21;;;;;;;30.93;18.87;;;;;22.20;100743.00;;;;2044993;28;20232;-59
2024/03/20 00:37:21;;;;;;;27.02;17.95;;;;;22.20;100746.00;;;;2047865;28;20738;-58
2024/03/20 00:38:21;;;;;;;27.07;18.13;;;;;22.20;100744.00;;;;2048699;28;20220;-58
2024/03/20 00:39:23;;;;;;;29.23;19.00;;;;;22.20;100744.00;;;;2045662;28;20224;-59
2024/03/20 00:40:23;;;;;;;26.00;16.30;;;;;22.20;100742.00;;;;2034839;28;20648;-57
2024/03/20 00:41:23;;;;;;;34.00;18.30;;;;;22.20;100743.00;;;;2045298;28;20220;-59
2024/03/20 00:42:25;;;;;;;29.93;17.90;;;;;22.20;100739.00;;;;2048307;28;20215;-57
2024/03/20 00:43:26;;;;;;;27.27;17.05;;;;;21.30;100742.00;;;;2046658;28;20807;-57
2024/03/20 00:44:26;;;;;;;26.37;16.83;;;;;22.20;100747.00;;;;2043870;28;21154;-63
2024/03/20 00:45:29;;;;;;;29.43;17.20;;;;;22.20;100743.00;;;;2034774;28;20232;-57
2024/03/20 00:46:29;;;;;;;26.05;16.50;;;;;22.20;100737.00;;;;2043767;28;20220;-56
2024/03/20 00:47:29;;;;;;;29.20;18.07;;;;;22.20;100736.00;;;;2041993;28;20270;-58
2024/03/20 00:48:30;;;;;;;24.23;16.07;;;;;22.20;100739.00;;;;2045340;28;20344;-58
2024/03/20 00:49:31;;;;;;;23.37;16.00;;;;;22.20;100743.00;;;;2047302;28;20211;-56
2024/03/20 00:50:31;;;;;;;24.23;14.67;;;;;22.20;100744.00;;;;2037882;28;20234;-58
2024/03/20 00:51:31;;;;;;;24.47;15.43;;;;;22.10;100736.00;;;;2044779;28;20216;-58
2024/03/20 00:52:32;;;;;;;24.63;16.40;;;;;22.20;100742.00;;;;2042365;28;20224;-59
2024/03/20 00:53:32;;;;;;;23.13;15.13;;;;;22.20;100743.00;;;;2045512;28;20279;-59
2024/03/20 00:54:32;;;;;;;24.00;16.13;;;;;22.20;100799.00;;;;2044519;28;20224;-57
2024/03/20 00:55:33;;;;;;;26.03;15.80;;;;;22.20;100737.00;;;;2036369;28;20707;-59
2024/03/20 00:56:33;;;;;;;21.40;14.80;;;;;22.20;100742.00;;;;2046897;28;20712;-58
2024/03/20 00:57:33;;;;;;;25.33;15.30;;;;;22.20;100733.00;;;;2045729;28;20732;-58
2024/03/20 00:58:34;;;;;;;24.60;15.47;;;;;22.20;100742.00;;;;2044854;28;20887;-58
2024/03/20 00:59:34;;;;;;;24.00;16.30;;;;;22.20;100734.00;;;;2044364;28;20802;-59
2024/03/20 01:00:34;;;;;;;23.47;13.77;;;;;22.20;100733.00;;;;2035062;28;20704;-58
2024/03/20 01:01:35;;;;;;;23.83;14.70;;;;;22.10;100720.00;;;;2048705;28;20207;-57
2024/03/20 01:02:35;;;;;;;22.23;14.20;;;;;22.10;100729.00;;;;2045932;28;20303;-57
2024/03/20 01:03:35;;;;;;;24.40;13.10;;;;;22.10;100729.00;;;;2044528;28;20217;-58
2024/03/20 01:04:36;;;;;;;21.43;13.73;;;;;22.10;100705.00;;;;2045131;28;20219;-59
2024/03/20 01:05:36;;;;;;;24.00;15.47;;;;;22.10;100729.00;;;;2035620;28;20259;-58
2024/03/20 01:06:36;;;;;;;21.40;14.00;;;;;22.10;100719.00;;;;2046443;28;20220;-59
2024/03/20 01:07:37;;;;;;;22.60;14.30;;;;;22.10;100728.00;;;;2044657;28;20307;-58
2024/03/20 01:08:40;;;;;;;22.10;14.47;;;;;22.10;100725.00;;;;2050459;28;20219;-56
2024/03/20 01:09:40;;;;;;;20.05;13.55;;;;;22.10;100719.00;;;;2044686;28;20227;-55
2024/03/20 01:10:41;;;;;;;22.30;14.47;;;;;22.10;100731.00;;;;2037120;28;20235;-58
2024/03/20 01:11:41;;;;;;;19.30;13.80;;;;;22.10;100728.00;;;;2046550;28;20324;-59
2024/03/20 01:12:41;;;;;;;21.43;13.60;;;;;22.10;100653.00;;;;2047052;28;20220;-56
2024/03/20 01:13:42;;;;;;;20.70;14.33;;;;;22.10;100724.00;;;;2045086;28;20781;-57
2024/03/20 01:14:44;;;;;;;21.93;14.00;;;;;22.10;100779.00;;;;2044530;28;20658;-58
2024/03/20 01:15:45;;;;;;;21.35;13.70;;;;;22.10;100728.00;;;;2035192;28;20220;-59
2024/03/20 01:16:48;;;;;;;19.67;14.23;;;;;22.10;100725.00;;;;2043794;28;20263;-58
2024/03/20 01:17:49;;;;;;;18.60;12.60;;;;;22.10;100722.00;;;;2041990;28;20531;-58
2024/03/20 01:18:49;;;;;;;21.13;12.83;;;;;22.10;100731.00;;;;2042613;28;20224;-58
2024/03/20 01:19:49;;;;;;;20.73;12.60;;;;;22.10;100733.00;;;;2044230;28;20224;-58
2024/03/20 01:20:50;;;;;;;20.27;12.30;;;;;22.10;100731.00;;;;2029628;28;20232;-58
2024/03/20 01:21:50;;;;;;;21.07;12.60;;;;;22.10;100732.00;;;;2044764;28;20231;-58
2024/03/20 01:22:51;;;;;;;18.10;11.90;;;;;22.10;100730.00;;;;2046598;28;20244;-59
2024/03/20 01:23:51;;;;;;;18.10;12.10;;;;;22.10;100726.00;;;;2044872;28;20219;-59
2024/03/20 01:24:52;;;;;;;18.73;12.27;;;;;22.10;100726.00;;;;2046260;28;20224;-59
2024/03/20 01:25:52;;;;;;;18.00;11.93;;;;;22.10;100729.00;;;;2035694;28;20464;-58
2024/03/20 01:26:52;;;;;;;16.80;10.97;;;;;22.10;100720.00;;;;2044646;28;20688;-59
2024/03/20 01:27:53;;;;;;;18.03;12.63;;;;;22.10;100723.00;;;;2052081;28;20747;-58
2024/03/20 01:28:53;;;;;;;17.30;11.13;;;;;22.10;100731.00;;;;2045425;28;20703;-59
2024/03/20 01:29:53;;;;;;;16.90;11.17;;;;;22.10;100731.00;;;;2046308;28;20254;-59
2024/03/20 01:30:57;;;;;;;17.17;12.03;;;;;22.10;100729.00;;;;2035810;28;20218;-59
2024/03/20 01:31:57;;;;;;;19.50;12.00;;;;;22.10;100718.00;;;;2045523;28;20224;-59
2024/03/20 01:32:58;;;;;;;19.07;12.10;;;;;22.10;100718.00;;;;2044813;28;20220;-61
2024/03/20 01:33:58;;;;;;;15.43;10.80;;;;;22.10;100730.00;;;;2044263;28;20233;-62
2024/03/20 01:34:58;;;;;;;17.60;10.70;;;;;22.10;100704.00;;;;2044385;28;20588;-59
2024/03/20 01:36:00;;;;;;;20.67;12.93;;;;;22.10;100721.00;;;;2034784;28;20628;-59
2024/03/20 01:37:00;;;;;;;16.58;11.63;;;;;22.10;100715.00;;;;2047427;28;20230;-58
2024/03/20 01:38:00;;;;;;;18.43;11.10;;;;;20.90;100715.00;;;;2044567;28;20223;-58
2024/03/20 01:39:02;;;;;;;18.93;11.80;;;;;22.10;100727.00;;;;2045331;28;20216;-61
2024/03/20 01:40:06;;;;;;;17.05;10.95;;;;;22.00;100726.00;;;;2035148;28;20232;-58
2024/03/20 01:41:06;;;;;;;18.17;11.80;;;;;22.00;100721.00;;;;2044139;28;20248;-58
2024/03/20 01:42:08;;;;;;;17.53;10.50;;;;;21.40;100709.00;;;;2043998;28;20251;-58
2024/03/20 01:43:19;;;;;;;18.42;10.23;;;;;22.00;100719.00;;;;2045241;28;20591;-58
2024/03/20 01:44:19;;;;;;;16.13;9.93;;;;;22.00;100723.00;;;;2035358;29;20224;-59
2024/03/20 01:45:20;;;;;;;16.43;10.20;;;;;22.00;100711.00;;;;2026940;28;20226;-58
2024/03/20 01:46:26;;;;;;;18.02;11.23;;;;;22.00;100719.00;;;;2040313;28;20245;-58
2024/03/20 01:47:26;;;;;;;16.10;10.20;;;;;22.00;100717.00;;;;2041074;28;20296;-58
2024/03/20 01:48:26;;;;;;;15.53;10.20;;;;;22.00;100723.00;;;;2043880;28;20921;-58
2024/03/20 01:49:27;;;;;;;13.90;10.17;;;;;22.00;100715.00;;;;2044162;28;20840;-58
2024/03/20 01:50:27;;;;;;;15.10;10.30;;;;;22.00;100726.00;;;;2034714;28;20742;-58
2024/03/20 01:51:28;;;;;;;16.50;10.07;;;;;22.00;100716.00;;;;2045028;28;20696;-58
2024/03/20 01:52:28;;;;;;;16.50;11.50;;;;;22.00;100716.00;;;;2036133;29;20549;-60
2024/03/20 01:53:28;;;;;;;15.23;9.80;;;;;22.00;100713.00;;;;2036697;28;20758;-60
2024/03/20 01:54:29;;;;;;;15.73;10.00;;;;;22.00;100714.00;;;;2031926;29;20233;-59
2024/03/20 01:55:29;;;;;;;16.70;9.77;;;;;22.00;100712.00;;;;2026825;29;20253;-60
2024/03/20 01:56:30;;;;;;;17.00;9.43;;;;;22.00;100711.00;;;;2043250;28;20228;-57
2024/03/20 01:57:30;;;;;;;15.93;10.20;;;;;22.00;100714.00;;;;2035767;29;20232;-58
2024/03/20 01:58:30;;;;;;;15.27;9.37;;;;;22.00;100707.00;;;;2039771;28;20279;-59
2024/03/20 01:59:31;;;;;;;15.40;10.47;;;;;22.00;100709.00;;;;2047303;28;20303;-58
2024/03/20 02:00:31;;;;;;;13.90;9.83;;;;;22.00;100702.00;;;;2032841;28;20236;-58
2024/03/20 02:01:31;;;;;;;14.97;9.20;;;;;22.00;100709.00;;;;2044788;28;20880;-58
2024/03/20 02:02:32;;;;;;;14.67;9.80;;;;;22.00;100711.00;;;;2044047;28;20255;-59
2024/03/20 02:03:32;;;;;;;14.97;9.17;;;;;22.00;100712.00;;;;2044257;28;20335;-58
2024/03/20 02:04:32;;;;;;;13.60;8.30;;;;;22.00;100709.00;;;;2044578;28;20212;-58
2024/03/20 02:05:33;;;;;;;12.37;8.87;;;;;22.00;100716.00;;;;2037747;28;20263;-58
2024/03/20 02:06:33;;;;;;;14.20;9.30;;;;;22.00;100717.00;;;;2044069;28;20227;-60
2024/03/20 02:07:33;;;;;;;13.53;9.10;;;;;22.00;100717.00;;;;2045725;28;20221;-59
2024/03/20 02:08:34;;;;;;;13.80;8.60;;;;;21.90;100718.00;;;;2044486;28;20307;-58
2024/03/20 02:09:34;;;;;;;12.10;8.57;;;;;22.00;100714.00;;;;2043907;28;20279;-56
2024/03/20 02:10:34;;;;;;;12.57;8.77;;;;;22.00;100711.00;;;;2034392;28;20224;-55
2024/03/20 02:11:35;;;;;;;13.60;8.53;;;;;22.00;100718.00;;;;2044100;28;20239;-58
2024/03/20 02:12:35;;;;;;;11.60;8.10;;;;;22.00;100721.00;;;;2047209;28;20294;-58
2024/03/20 02:13:43;;;;;;;14.13;8.93;;;;;22.00;100714.00;;;;2047171;28;20216;-58
2024/03/20 02:14:43;;;;;;;14.25;8.77;;;;;22.00;100719.00;;;;2043803;28;20212;-59
2024/03/20 02:15:44;;;;;;;13.03;8.10;;;;;22.00;100716.00;;;;2039969;28;20374;-58
2024/03/20 02:16:44;;;;;;;11.43;7.57;;;;;22.00;100721.00;;;;2051160;28;20223;-58
2024/03/20 02:17:44;;;;;;;11.30;7.70;;;;;22.00;100722.00;;;;2044658;28;20223;-58
2024/03/20 02:18:46;;;;;;;12.00;7.57;;;;;21.90;100721.00;;;;2044678;28;20251;-58
2024/03/20 02:19:46;;;;;;;13.68;8.88;;;;;21.90;100719.00;;;;2045437;28;20940;-58
2024/03/20 02:20:46;;;;;;;11.30;7.93;;;;;21.90;100715.00;;;;2035734;28;20236;-58
2024/03/20 02:21:47;;;;;;;13.33;8.17;;;;;22.00;100722.00;;;;2045181;28;20223;-58
2024/03/20 02:22:47;;;;;;;14.60;8.30;;;;;22.00;100719.00;;;;2047227;28;20250;-59
2024/03/20 02:23:48;;;;;;;10.37;6.83;;;;;21.90;100725.00;;;;2044361;28;20314;-59
2024/03/20 02:24:48;;;;;;;10.73;7.20;;;;;21.90;100712.00;;;;2043030;28;20228;-59
2024/03/20 02:25:48;;;;;;;11.47;7.53;;;;;21.90;100720.00;;;;2040335;28;20469;-59
2024/03/20 02:26:49;;;;;;;11.70;8.20;;;;;21.90;100720.00;;;;2052339;28;20222;-59
2024/03/20 02:27:49;;;;;;;11.73;8.17;;;;;22.00;100718.00;;;;2045781;28;20263;-59
2024/03/20 02:28:49;;;;;;;12.80;7.53;;;;;21.90;100721.00;;;;2043905;28;20216;-59
2024/03/20 02:29:50;;;;;;;13.10;8.13;;;;;21.90;100717.00;;;;2043157;28;20224;-59
2024/03/20 02:30:50;;;;;;;10.87;7.27;;;;;21.90;100715.00;;;;2034914;28;20306;-59
2024/03/20 02:31:50;;;;;;;12.20;7.50;;;;;21.90;100715.00;;;;2043980;28;20235;-58
2024/03/20 02:32:51;;;;;;;12.43;7.90;;;;;21.90;100714.00;;;;2044427;28;20216;-59
2024/03/20 02:33:53;;;;;;;10.80;7.23;;;;;21.90;100718.00;;;;2043952;28;20644;-59
2024/03/20 02:34:53;;;;;;;14.00;7.05;;;;;21.90;100721.00;;;;2044755;28;20278;-59
2024/03/20 02:35:54;;;;;;;9.80;7.00;;;;;20.80;100718.00;;;;2035022;28;20290;-59
2024/03/20 02:36:54;;;;;;;12.63;7.60;;;;;21.90;100722.00;;;;2041815;28;20220;-59
2024/03/20 02:37:54;;;;;;;10.47;6.50;;;;;21.90;100723.00;;;;2044847;28;20688;-58
2024/03/20 02:38:54;;;;;;;12.43;7.60;;;;;21.90;100720.00;;;;2049910;28;20204;-60
2024/03/20 02:39:55;;;;;;;12.50;7.63;;;;;21.90;100725.00;;;;2044939;28;20216;-58
2024/03/20 02:40:56;;;;;;;10.67;7.50;;;;;21.90;100716.00;;;;2034645;28;21644;-58
2024/03/20 02:41:56;;;;;;;9.93;6.67;;;;;21.90;100722.00;;;;2044427;28;20267;-56
2024/03/20 02:42:57;;;;;;;10.53;6.93;;;;;21.90;100715.00;;;;2044081;28;20460;-58
2024/03/20 02:43:57;;;;;;;9.50;5.93;;;;;21.90;100716.00;;;;2050394;28;20354;-58
2024/03/20 02:44:58;;;;;;;8.47;5.77;;;;;21.90;100718.00;;;;2043555;28;20220;-58
2024/03/20 02:45:58;;;;;;;11.10;6.50;;;;;21.90;100722.00;;;;2036988;28;20223;-56
2024/03/20 02:47:00;;;;;;;10.03;6.30;;;;;21.90;100718.00;;;;2043246;28;20456;-56
2024/03/20 02:48:00;;;;;;;10.07;6.60;;;;;21.90;100723.00;;;;2035668;29;20211;-55
2024/03/20 02:49:00;;;;;;;9.17;6.23;;;;;21.90;100717.00;;;;2043852;28;20215;-58
2024/03/20 02:50:01;;;;;;;11.10;6.87;;;;;21.90;100721.00;;;;2037425;28;20271;-56
2024/03/20 02:51:02;;;;;;;12.50;7.07;;;;;21.90;100716.00;;;;2045272;28;20208;-58
2024/03/20 02:52:02;;;;;;;9.90;6.50;;;;;21.90;100709.00;;;;2044271;28;20299;-58
2024/03/20 02:53:04;;;;;;;11.77;7.00;;;;;21.90;100715.00;;;;2045852;28;20207;-57
2024/03/20 02:54:04;;;;;;;10.02;6.60;;;;;21.90;100715.00;;;;2044322;28;20292;-58
2024/03/20 02:55:04;;;;;;;9.47;6.60;;;;;21.90;100706.00;;;;2035607;28;20262;-58
2024/03/20 02:56:05;;;;;;;7.97;5.53;;;;;21.80;100703.00;;;;2038377;28;20216;-59
2024/03/20 02:57:06;;;;;;;9.53;6.17;;;;;21.90;100715.00;;;;2042477;28;20226;-58
2024/03/20 02:58:06;;;;;;;9.50;6.40;;;;;21.90;100715.00;;;;2044460;28;20219;-57
2024/03/20 02:59:06;;;;;;;8.67;5.90;;;;;21.90;100710.00;;;;2044526;28;20716;-59
2024/03/20 03:00:07;;;;;;;8.60;6.20;;;;;21.90;100717.00;;;;2034910;28;20302;-57
2024/03/20 03:01:08;;;;;;;11.43;6.87;;;;;21.90;100713.00;;;;2044500;28;20224;-58
2024/03/20 03:02:09;;;;;;;11.20;6.40;;;;;21.90;100722.00;;;;2045135;28;20548;-58
2024/03/20 03:03:09;;;;;;;9.10;6.22;;;;;21.90;100717.00;;;;2044064;28;20243;-60
2024/03/20 03:04:10;;;;;;;8.90;6.03;;;;;21.80;100711.00;;;;2042050;28;20220;-58
2024/03/20 03:05:11;;;;;;;9.13;6.03;;;;;21.90;100718.00;;;;2034480;28;20212;-58
2024/03/20 03:06:11;;;;;;;9.32;6.13;;;;;21.80;100712.00;;;;2043924;28;20224;-57
2024/03/20 03:07:11;;;;;;;10.43;6.60;;;;;21.80;100718.00;;;;2042834;28;20300;-58
2024/03/20 03:08:12;;;;;;;9.30;5.87;;;;;21.80;100721.00;;;;2044710;28;20219;-60
2024/03/20 03:09:16;;;;;;;9.23;5.83;;;;;21.80;100708.00;;;;2044082;28;20224;-58
2024/03/20 03:10:17;;;;;;;8.60;5.55;;;;;21.80;100723.00;;;;2037887;28;20220;-58
2024/03/20 03:11:17;;;;;;;10.27;6.23;;;;;20.90;100714.00;;;;2038481;28;20232;-58
2024/03/20 03:12:18;;;;;;;9.57;5.57;;;;;21.90;100717.00;;;;2043376;28;20227;-59
2024/03/20 03:13:18;;;;;;;8.23;5.40;;;;;21.80;100714.00;;;;2044727;28;20228;-60
2024/03/20 03:14:18;;;;;;;8.73;5.30;;;;;21.80;100710.00;;;;2045532;28;20252;-58
2024/03/20 03:15:19;;;;;;;10.83;6.20;;;;;21.90;100722.00;;;;2040600;28;21305;-58
2024/03/20 03:16:19;;;;;;;7.03;5.20;;;;;21.80;100715.00;;;;2044779;28;20692;-57
2024/03/20 03:17:19;;;;;;;8.67;5.40;;;;;21.80;100713.00;;;;2046732;28;20267;-58
2024/03/20 03:18:20;;;;;;;9.93;5.40;;;;;21.80;100716.00;;;;2044538;28;20228;-58
2024/03/20 03:19:20;;;;;;;7.77;5.93;;;;;21.80;100716.00;;;;2044310;28;20239;-60
2024/03/20 03:20:23;;;;;;;7.37;5.30;;;;;21.80;100708.00;;;;2035378;28;20314;-58
2024/03/20 03:21:23;;;;;;;8.25;5.30;;;;;21.80;100718.00;;;;2043610;28;20321;-58
2024/03/20 03:22:24;;;;;;;8.13;5.80;;;;;21.80;100722.00;;;;2044972;28;20278;-57
2024/03/20 03:23:24;;;;;;;10.20;5.57;;;;;21.80;100715.00;;;;2044546;28;20226;-58
2024/03/20 03:24:24;;;;;;;6.33;4.70;;;;;21.80;100721.00;;;;2045101;28;20224;-59
2024/03/20 03:25:25;;;;;;;7.43;5.33;;;;;21.80;100711.00;;;;2032359;28;20221;-58
2024/03/20 03:26:25;;;;;;;6.23;4.93;;;;;21.80;100714.00;;;;2041751;28;20303;-58
2024/03/20 03:27:25;;;;;;;9.40;5.73;;;;;21.80;100718.00;;;;2045013;28;20246;-58
2024/03/20 03:28:26;;;;;;;8.10;5.73;;;;;21.80;100708.00;;;;2044144;28;20259;-58
2024/03/20 03:29:26;;;;;;;7.60;4.87;;;;;21.80;100715.00;;;;2049027;28;20224;-57
2024/03/20 03:30:26;;;;;;;9.37;6.40;;;;;21.80;100713.00;;;;2031800;28;20247;-58
2024/03/20 03:31:27;;;;;;;8.87;5.57;;;;;21.80;100712.00;;;;2046115;28;20272;-56
2024/03/20 03:32:27;;;;;;;6.47;4.40;;;;;21.80;100718.00;;;;2044465;28;20236;-58
2024/03/20 03:33:27;;;;;;;8.17;5.50;;;;;21.80;100711.00;;;;2044234;28;20253;-59
2024/03/20 03:34:29;;;;;;;7.53;5.47;;;;;21.80;100717.00;;;;2044169;28;20232;-58
2024/03/20 03:35:29;;;;;;;7.90;5.00;;;;;21.80;100718.00;;;;2034224;28;20287;-58
2024/03/20 03:36:31;;;;;;;7.60;4.90;;;;;21.80;100712.00;;;;2043683;28;20294;-58
2024/03/20 03:37:32;;;;;;;8.00;4.88;;;;;21.80;100666.00;;;;2044024;28;20275;-57
2024/03/20 03:38:33;;;;;;;5.90;4.60;;;;;21.80;100718.00;;;;2036129;28;20216;-58
2024/03/20 03:39:33;;;;;;;6.60;4.67;;;;;21.80;100719.00;;;;2035858;29;20228;-58
2024/03/20 03:40:34;;;;;;;6.80;4.87;;;;;21.80;100707.00;;;;2025907;28;20485;-58
2024/03/20 03:41:34;;;;;;;9.53;5.33;;;;;21.80;100709.00;;;;2043883;28;20307;-58
2024/03/20 03:42:35;;;;;;;8.03;5.30;;;;;21.80;100708.00;;;;2042658;28;20243;-58
2024/03/20 03:43:36;;;;;;;7.63;4.80;;;;;21.80;100714.00;;;;2036245;29;20240;-58
2024/03/20 03:44:37;;;;;;;6.23;4.47;;;;;21.80;100717.00;;;;2042590;28;20711;-59
2024/03/20 03:45:38;;;;;;;8.63;5.63;;;;;21.80;100710.00;;;;2034035;28;20929;-58
2024/03/20 03:46:39;;;;;;;7.20;4.43;;;;;21.80;100709.00;;;;2043248;28;20270;-58
2024/03/20 03:47:39;;;;;;;6.17;4.33;;;;;21.70;100714.00;;;;2046525;28;21484;-58
2024/03/20 03:48:39;;;;;;;7.50;4.47;;;;;21.80;100709.00;;;;2044358;28;20621;-58
2024/03/20 03:49:40;;;;;;;7.73;5.07;;;;;21.70;100714.00;;;;2043817;28;20307;-58
2024/03/20 03:50:40;;;;;;;6.70;4.70;;;;;21.70;100715.00;;;;2040663;28;20254;-58
2024/03/20 03:51:40;;;;;;;7.07;4.40;;;;;21.80;100713.00;;;;2051269;28;20200;-58
2024/03/20 03:52:41;;;;;;;6.40;4.40;;;;;21.80;100711.00;;;;2049306;28;20291;-58
2024/03/20 03:53:41;;;;;;;7.00;4.70;;;;;21.80;100709.00;;;;2044414;28;20224;-58
2024/03/20 03:54:41;;;;;;;6.83;4.30;;;;;21.80;100714.00;;;;2043564;28;20197;-58
2024/03/20 03:55:42;;;;;;;6.13;4.23;;;;;21.70;100714.00;;;;2034382;28;20239;-58
2024/03/20 03:56:42;;;;;;;5.70;4.03;;;;;21.80;100715.00;;;;2043362;28;20224;-58
2024/03/20 03:57:42;;;;;;;6.60;4.80;;;;;21.80;100714.00;;;;2044439;28;20216;-58
2024/03/20 03:58:43;;;;;;;7.67;4.90;;;;;21.70;100712.00;;;;2044539;28;20311;-58
2024/03/20 03:59:44;;;;;;;6.93;4.67;;;;;21.70;100711.00;;;;2043430;28;20216;-58
2024/03/20 04:00:44;;;;;;;6.13;3.85;;;;;21.70;100703.00;;;;2033438;28;20220;-58
2024/03/20 04:01:48;;;;;;;6.60;3.83;;;;;21.70;100709.00;;;;2043817;28;20629;-58
2024/03/20 04:02:48;;;;;;;6.30;4.43;;;;;21.70;100712.00;;;;2046454;28;20227;-58
2024/03/20 04:03:48;;;;;;;6.20;4.40;;;;;21.70;100712.00;;;;2043767;28;20247;-57
2024/03/20 04:04:49;;;;;;;5.20;3.90;;;;;21.70;100719.00;;;;2044155;28;20228;-59
2024/03/20 04:05:51;;;;;;;6.82;4.30;;;;;21.70;100716.00;;;;2034142;28;20255;-58
2024/03/20 04:06:52;;;;;;;5.40;4.35;;;;;21.70;100710.00;;;;2046680;28;20238;-58
2024/03/20 04:07:53;;;;;;;5.70;4.30;;;;;21.70;100715.00;;;;2045490;28;20235;-58
2024/03/20 04:08:53;;;;;;;5.60;3.97;;;;;21.70;100711.00;;;;2044235;28;20303;-59
2024/03/20 04:09:54;;;;;;;5.87;4.07;;;;;21.70;100711.00;;;;2044340;28;20731;-58
2024/03/20 04:10:54;;;;;;;6.70;4.73;;;;;21.70;100715.00;;;;2035260;28;20240;-58
2024/03/20 04:11:54;;;;;;;5.67;4.27;;;;;21.70;100718.00;;;;2044470;28;20220;-58
2024/03/20 04:12:55;;;;;;;6.20;3.97;;;;;21.70;100713.00;;;;2043993;28;20268;-57
2024/03/20 04:13:55;;;;;;;5.10;3.70;;;;;21.70;100712.00;;;;2046328;28;20322;-60
2024/03/20 04:14:55;;;;;;;6.17;3.83;;;;;21.70;100711.00;;;;2044706;28;20231;-58
2024/03/20 04:15:56;;;;;;;6.63;4.53;;;;;21.70;100708.00;;;;2034910;28;20212;-57
2024/03/20 04:16:56;;;;;;;5.90;3.90;;;;;21.70;100707.00;;;;2043206;28;20223;-58
2024/03/20 04:17:56;;;;;;;6.27;4.43;;;;;21.70;100702.00;;;;2044303;28;20216;-58
2024/03/20 04:18:57;;;;;;;5.67;4.13;;;;;21.70;100708.00;;;;2044174;28;20271;-58
2024/03/20 04:19:57;;;;;;;6.43;4.00;;;;;21.70;100707.00;;;;2044771;28;20220;-58
2024/03/20 04:20:57;;;;;;;6.70;4.23;;;;;21.70;100707.00;;;;2035581;28;20224;-60
2024/03/20 04:21:59;;;;;;;5.73;3.43;;;;;21.70;100706.00;;;;2044905;28;20220;-59
2024/03/20 04:22:59;;;;;;;6.78;4.50;;;;;21.70;100711.00;;;;2044148;28;20224;-57
2024/03/20 04:23:59;;;;;;;4.93;3.70;;;;;21.70;100700.00;;;;2043806;28;20216;-59
2024/03/20 04:25:00;;;;;;;6.30;4.10;;;;;21.70;100711.00;;;;2042585;28;20224;-59
2024/03/20 04:26:00;;;;;;;4.80;3.93;;;;;21.70;100709.00;;;;2040548;28;20252;-58
2024/03/20 04:27:00;;;;;;;4.53;3.37;;;;;21.70;100705.00;;;;2045286;28;20224;-59
2024/03/20 04:28:01;;;;;;;7.30;4.30;;;;;21.60;100705.00;;;;2044423;28;20250;-58
2024/03/20 04:29:01;;;;;;;4.73;3.50;;;;;21.70;100707.00;;;;2044977;28;20706;-58
2024/03/20 04:30:02;;;;;;;6.67;3.83;;;;;21.70;100708.00;;;;2043110;28;20258;-58
2024/03/20 04:31:05;;;;;;;5.43;3.95;;;;;21.70;100713.00;;;;2045367;28;20649;-58
2024/03/20 04:32:05;;;;;;;5.63;3.33;;;;;21.70;100710.00;;;;2045714;28;20643;-58
2024/03/20 04:33:06;;;;;;;6.50;3.97;;;;;21.70;100694.00;;;;2045905;28;20224;-58
2024/03/20 04:34:07;;;;;;;4.90;3.35;;;;;21.70;100701.00;;;;2045005;28;20376;-58
2024/03/20 04:35:07;;;;;;;5.23;3.40;;;;;21.70;100701.00;;;;2035380;28;20315;-58
2024/03/20 04:36:08;;;;;;;6.43;3.93;;;;;21.70;100698.00;;;;2052058;28;20898;-58
2024/03/20 04:37:09;;;;;;;6.20;4.10;;;;;21.70;100704.00;;;;2043995;28;20279;-58
2024/03/20 04:38:09;;;;;;;6.30;3.87;;;;;21.60;100704.00;;;;2046012;28;20494;-58
2024/03/20 04:39:10;;;;;;;5.13;3.73;;;;;21.70;100711.00;;;;2045946;28;20917;-58
2024/03/20 04:40:10;;;;;;;4.73;3.60;;;;;21.70;100699.00;;;;2037384;28;20746;-58
2024/03/20 04:41:11;;;;;;;5.30;3.60;;;;;21.70;100711.00;;;;2052866;28;20255;-58
2024/03/20 04:42:12;;;;;;;4.97;3.43;;;;;21.70;100711.00;;;;2051251;28;20265;-58
2024/03/20 04:43:13;;;;;;;6.03;3.50;;;;;21.70;100718.00;;;;2047378;28;20228;-60
2024/03/20 04:44:13;;;;;;;5.83;3.40;;;;;21.70;100711.00;;;;2045235;28;20216;-59
2024/03/20 04:45:14;;;;;;;5.60;3.40;;;;;21.70;100710.00;;;;2038100;28;20783;-59
2024/03/20 04:46:15;;;;;;;5.23;3.20;;;;;21.70;100711.00;;;;2045141;28;20224;-59
2024/03/20 04:47:15;;;;;;;5.28;3.45;;;;;21.70;100715.00;;;;2044401;28;20244;-58
2024/03/20 04:48:15;;;;;;;5.97;4.00;;;;;21.60;100714.00;;;;2044701;28;20586;-58
2024/03/20 04:49:16;;;;;;;5.10;3.37;;;;;21.60;100707.00;;;;2044831;28;20228;-58
2024/03/20 04:50:16;;;;;;;5.53;3.20;;;;;21.60;100712.00;;;;2039319;28;20212;-58
2024/03/20 04:51:16;;;;;;;4.17;3.00;;;;;21.70;100720.00;;;;2045680;28;20267;-57
2024/03/20 04:52:17;;;;;;;5.80;3.50;;;;;21.70;100717.00;;;;2045492;28;21983;-57
2024/03/20 04:53:18;;;;;;;5.00;3.23;;;;;21.60;100716.00;;;;2046245;28;20650;-59
2024/03/20 04:54:18;;;;;;;4.97;3.70;;;;;21.60;100713.00;;;;2046288;28;20255;-59
2024/03/20 04:55:19;;;;;;;5.23;3.00;;;;;21.60;100711.00;;;;2038801;28;20855;-57
2024/03/20 04:56:19;;;;;;;4.40;2.63;;;;;21.60;100724.00;;;;2053304;28;20710;-58